createdAt,value
2022-12-11T00:00:53.001Z,300.20
2022-12-11T00:03:20.855Z,220.73
2022-12-11T00:05:48.300Z,343.92
2022-12-11T00:08:15.800Z,501.02
2022-12-11T00:10:50.231Z,346.98
2022-12-11T00:13:18.558Z,290.48
2022-12-11T00:15:46.010Z,367.93
2022-12-11T00:18:15.183Z,464.05
2022-12-11T00:20:43.219Z,327.17
2022-12-11T00:23:11.332Z,432.13
2022-12-11T00:25:46.477Z,515.58
2022-12-11T00:28:17.272Z,297.43
2022-12-11T00:30:45.025Z,522.38
2022-12-11T00:33:13.768Z,266.23
2022-12-11T00:35:48.722Z,218.68
2022-12-11T00:38:18.314Z,234.80
2022-12-11T00:40:45.724Z,452.67
2022-12-11T00:43:13.483Z,359.92
2022-12-11T00:45:46.060Z,208.25
2022-12-11T00:48:14.598Z,301.30
2022-12-11T00:50:42.690Z,338.60
2022-12-11T00:53:10.527Z,182.07
2022-12-11T00:55:39.919Z,202.77
2022-12-11T00:58:08.224Z,375.67
2022-12-11T01:00:36.056Z,210.75
2022-12-11T01:03:04.069Z,95.90
2022-12-11T01:05:32.168Z,127.57
2022-12-11T01:08:00.658Z,324.48
2022-12-11T01:10:28.469Z,333.63
2022-12-11T01:12:58.643Z,183.70
2022-12-11T01:15:29.390Z,231.10
2022-12-11T01:17:57.128Z,189.00
2022-12-11T01:20:26.383Z,146.13
2022-12-11T01:22:58.550Z,216.45
2022-12-11T01:25:27.088Z,120.70
2022-12-11T01:27:56.142Z,310.10
2022-12-11T01:30:26.097Z,202.30
2022-12-11T01:32:53.535Z,349.83
2022-12-11T01:35:21.097Z,108.57
2022-12-11T01:37:49.237Z,269.08
2022-12-11T01:40:19.198Z,113.60
2022-12-11T01:42:47.250Z,215.03
2022-12-11T01:45:31.332Z,121.07
2022-12-11T01:48:11.719Z,294.58
2022-12-11T01:50:58.775Z,136.02
2022-12-11T01:53:31.576Z,221.63
2022-12-11T01:55:59.961Z,178.40
2022-12-11T01:58:32.557Z,231.82
2022-12-11T02:01:03.083Z,260.65
2022-12-11T02:03:30.923Z,95.72
2022-12-11T02:06:02.249Z,241.48
2022-12-11T02:08:30.232Z,255.87
2022-12-11T02:11:06.453Z,219.68
2022-12-11T02:13:52.439Z,216.15
2022-12-11T02:16:37.182Z,245.00
2022-12-11T02:19:37.000Z,126.95
2022-12-11T02:22:09.292Z,320.40
2022-12-11T02:25:01.219Z,195.15
2022-12-11T02:27:47.560Z,124.68
2022-12-11T02:30:17.469Z,174.90
2022-12-11T02:32:57.947Z,158.25
2022-12-11T02:35:31.824Z,421.10
2022-12-11T02:38:08.435Z,234.43
2022-12-11T02:40:39.534Z,241.02
2022-12-11T02:43:09.683Z,198.65
2022-12-11T02:45:39.413Z,160.35
2022-12-11T02:48:08.531Z,309.97
2022-12-11T02:50:38.468Z,223.10
2022-12-11T02:53:07.564Z,153.57
2022-12-11T02:55:37.680Z,425.38
2022-12-11T02:58:13.272Z,257.45
2022-12-11T03:00:40.963Z,283.70
2022-12-11T03:03:08.499Z,217.57
2022-12-11T03:05:35.972Z,469.35
2022-12-11T03:08:03.501Z,152.02
2022-12-11T03:10:30.887Z,125.63
2022-12-11T03:12:59.975Z,255.20
2022-12-11T03:16:04.400Z,281.98
2022-12-11T03:18:41.576Z,334.23
2022-12-11T03:21:27.729Z,196.05
2022-12-11T03:24:04.028Z,204.55
2022-12-11T03:26:36.268Z,64.00
2022-12-11T03:29:08.896Z,126.68
2022-12-11T03:31:55.018Z,113.20
2022-12-11T03:34:33.910Z,112.63
2022-12-11T03:37:05.572Z,84.93
2022-12-11T03:39:37.490Z,97.13
2022-12-11T03:42:09.136Z,135.57
2022-12-11T03:44:37.324Z,56.80
2022-12-11T03:47:08.756Z,128.48
2022-12-11T03:49:42.036Z,62.95
2022-12-11T03:52:13.000Z,115.33
2022-12-11T03:54:43.127Z,83.65
2022-12-11T03:57:17.562Z,97.93
2022-12-11T03:59:45.521Z,43.10
2022-12-11T04:02:12.951Z,115.72
2022-12-11T04:04:44.509Z,51.87
2022-12-11T04:07:12.174Z,149.63
2022-12-11T04:09:39.509Z,52.28
2022-12-11T04:12:06.968Z,75.18
2022-12-11T04:14:52.486Z,38.20
2022-12-11T04:17:38.204Z,186.60
2022-12-11T04:20:25.111Z,144.95
2022-12-11T04:23:11.000Z,97.22
2022-12-11T04:25:38.368Z,112.90
2022-12-11T04:28:05.860Z,80.30
2022-12-11T04:30:34.506Z,107.03
2022-12-11T04:33:02.254Z,224.15
2022-12-11T04:35:31.353Z,175.60
2022-12-11T04:37:59.243Z,192.38
2022-12-11T04:40:26.618Z,107.78
2022-12-11T04:42:54.027Z,93.33
2022-12-11T04:45:21.608Z,207.15
2022-12-11T04:47:48.959Z,109.75
2022-12-11T04:50:16.944Z,86.30
2022-12-11T04:52:44.718Z,298.73
2022-12-11T04:55:12.491Z,93.37
2022-12-11T04:57:40.041Z,95.13
2022-12-11T05:00:09.920Z,147.07
2022-12-11T05:02:42.162Z,43.67
2022-12-11T05:05:11.186Z,169.52
2022-12-11T05:07:39.460Z,191.43
2022-12-11T05:10:07.737Z,36.95
2022-12-11T05:12:35.490Z,140.75
2022-12-11T05:15:02.884Z,50.22
2022-12-11T05:17:30.187Z,42.80
2022-12-11T05:19:57.584Z,50.63
2022-12-11T05:22:24.891Z,44.70
2022-12-11T05:24:52.228Z,55.47
2022-12-11T05:27:19.592Z,50.28
2022-12-11T05:29:47.029Z,156.18
2022-12-11T05:32:14.393Z,114.53
2022-12-11T05:34:41.724Z,232.43
2022-12-11T05:37:09.098Z,71.68
2022-12-11T05:39:36.480Z,95.00
2022-12-11T05:42:04.046Z,136.65
2022-12-11T05:44:32.462Z,215.20
2022-12-11T05:47:00.389Z,289.65
2022-12-11T05:49:30.963Z,68.57
2022-12-11T05:51:58.674Z,81.22
2022-12-11T05:54:26.037Z,79.20
2022-12-11T05:56:53.647Z,140.37
2022-12-11T05:59:21.143Z,92.10
2022-12-11T06:01:48.604Z,200.73
2022-12-11T06:04:15.993Z,98.05
2022-12-11T06:06:44.108Z,72.70
2022-12-11T06:09:16.971Z,44.63
2022-12-11T06:11:44.341Z,52.90
2022-12-11T06:14:13.364Z,180.65
2022-12-11T06:16:41.251Z,214.25
2022-12-11T06:19:15.015Z,97.68
2022-12-11T06:21:42.788Z,121.63
2022-12-11T06:24:11.415Z,205.35
2022-12-11T06:26:38.794Z,126.18
2022-12-11T06:29:10.960Z,155.23
2022-12-11T06:31:40.531Z,120.00
2022-12-11T06:34:16.264Z,37.70
2022-12-11T06:36:43.733Z,84.22
2022-12-11T06:39:11.073Z,51.53
2022-12-11T06:41:38.572Z,116.32
2022-12-11T06:44:05.902Z,74.57
2022-12-11T06:46:33.224Z,97.23
2022-12-11T06:49:00.554Z,153.18
2022-12-11T06:51:27.820Z,184.05
2022-12-11T06:53:57.344Z,87.55
2022-12-11T06:56:25.594Z,107.47
2022-12-11T06:58:53.421Z,138.50
2022-12-11T07:01:26.386Z,71.30
2022-12-11T07:03:55.436Z,62.60
2022-12-11T07:06:23.213Z,82.85
2022-12-11T07:08:50.823Z,82.93
2022-12-11T07:11:19.839Z,113.47
2022-12-11T07:13:47.819Z,186.73
2022-12-11T07:16:17.335Z,159.05
2022-12-11T07:18:48.408Z,168.85
2022-12-11T07:21:15.937Z,117.85
2022-12-11T07:23:43.589Z,136.87
2022-12-11T07:26:14.477Z,76.18
2022-12-11T07:28:42.583Z,88.47
2022-12-11T07:31:15.369Z,72.03
2022-12-11T07:33:43.427Z,159.00
2022-12-11T07:36:12.975Z,65.17
2022-12-11T07:38:41.652Z,37.80
2022-12-11T07:41:12.650Z,53.83
2022-12-11T07:43:40.379Z,74.72
2022-12-11T07:46:11.414Z,51.22
2022-12-11T07:48:40.510Z,93.83
2022-12-11T07:51:28.133Z,71.32
2022-12-11T07:54:01.317Z,115.30
2022-12-11T07:56:30.148Z,53.65
2022-12-11T07:59:02.773Z,31.00
2022-12-11T08:01:32.968Z,134.73
2022-12-11T08:04:00.956Z,89.40
2022-12-11T08:06:31.003Z,50.65
2022-12-11T08:09:00.298Z,101.00
2022-12-11T08:11:28.410Z,122.25
2022-12-11T08:13:56.091Z,48.03
2022-12-11T08:16:23.744Z,127.20
2022-12-11T08:18:51.749Z,132.40
2022-12-11T08:21:21.937Z,85.57
2022-12-11T08:23:50.049Z,107.07
2022-12-11T08:26:29.520Z,129.83
2022-12-11T08:28:57.286Z,111.82
2022-12-11T08:31:25.107Z,59.17
2022-12-11T08:33:53.229Z,139.45
2022-12-11T08:36:22.363Z,56.83
2022-12-11T08:38:50.670Z,126.43
2022-12-11T08:41:25.862Z,165.05
2022-12-11T08:43:55.405Z,162.00
2022-12-11T08:46:25.264Z,113.30
2022-12-11T08:48:53.475Z,107.22
2022-12-11T08:51:24.420Z,33.27
2022-12-11T08:53:54.518Z,146.77
2022-12-11T08:56:23.876Z,117.70
2022-12-11T08:58:52.061Z,138.40
2022-12-11T09:01:25.018Z,43.25
2022-12-11T09:03:54.240Z,127.97
2022-12-11T09:06:24.182Z,85.07
2022-12-11T09:08:53.393Z,88.43
2022-12-11T09:11:23.764Z,69.90
2022-12-11T09:13:51.087Z,136.82
2022-12-11T09:16:20.866Z,151.17
2022-12-11T09:18:49.883Z,245.52
2022-12-11T09:21:20.668Z,90.32
2022-12-11T09:23:48.440Z,126.35
2022-12-11T09:26:17.452Z,208.70
2022-12-11T10:07:54.265Z,129.40
2022-12-11T10:10:43.204Z,131.32
2022-12-11T10:13:49.672Z,185.32
2022-12-11T10:16:49.240Z,113.82
2022-12-11T10:19:28.243Z,75.13
2022-12-11T10:21:56.704Z,98.68
2022-12-11T10:27:34.781Z,274.40
2022-12-11T10:30:16.556Z,138.27
2022-12-11T10:33:02.652Z,152.90
2022-12-11T10:35:45.919Z,65.72
2022-12-11T10:38:21.514Z,169.43
2022-12-11T10:40:58.509Z,49.83
2022-12-11T10:43:48.397Z,47.85
2022-12-11T10:46:24.846Z,85.53
2022-12-11T10:48:55.811Z,63.08
2022-12-11T10:51:26.713Z,45.28
2022-12-11T10:53:58.721Z,75.35
2022-12-11T10:56:31.268Z,26.52
2022-12-11T10:59:00.665Z,32.17
2022-12-11T12:16:01.916Z,28.08
2022-12-11T12:18:32.599Z,15.55
2022-12-11T12:21:18.251Z,13.85
2022-12-11T12:24:12.130Z,12.43
2022-12-11T12:26:45.572Z,12.67
2022-12-11T12:29:43.382Z,10.40
2022-12-11T12:32:16.627Z,18.40
2022-12-11T12:34:49.905Z,18.75
2022-12-11T12:37:46.748Z,18.90
2022-12-11T12:40:34.859Z,24.00
2022-12-11T12:43:20.112Z,10.68
2022-12-11T12:46:02.093Z,13.45
2022-12-11T12:48:31.464Z,17.08
2022-12-11T12:50:59.596Z,15.18
2022-12-11T12:53:32.732Z,17.10
2022-12-11T12:56:01.791Z,12.30
2022-12-11T12:58:30.750Z,10.23
2022-12-11T13:01:20.883Z,11.63
2022-12-11T13:03:54.889Z,11.38
2022-12-11T13:06:39.284Z,11.00
2022-12-11T13:09:25.163Z,9.30
2022-12-11T13:11:58.046Z,10.73
2022-12-11T13:14:32.361Z,9.70
2022-12-11T13:17:36.747Z,10.65
2022-12-11T13:20:18.323Z,10.20
2022-12-11T13:22:51.167Z,13.02
2022-12-11T13:25:31.116Z,11.27
2022-12-11T13:28:22.341Z,11.07
2022-12-11T13:31:01.685Z,13.70
2022-12-11T13:33:33.223Z,10.80
2022-12-11T13:36:25.066Z,10.27
2022-12-11T13:39:01.137Z,9.00
2022-12-11T13:41:30.430Z,11.07
2022-12-11T13:43:58.860Z,10.00
2022-12-11T13:46:30.098Z,11.20
2022-12-11T13:49:01.589Z,9.38
2022-12-11T13:51:32.080Z,11.20
2022-12-11T13:54:16.322Z,25.27
2022-12-11T13:56:59.916Z,13.18
2022-12-11T13:59:41.392Z,16.17
2022-12-11T14:02:35.273Z,18.73
2022-12-11T14:05:08.632Z,22.27
2022-12-11T14:07:41.264Z,13.55
2022-12-11T14:10:23.167Z,13.48
2022-12-11T14:13:04.573Z,15.70
2022-12-11T14:15:33.896Z,14.52
2022-12-11T14:18:01.756Z,10.75
2022-12-11T14:20:32.121Z,9.18
2022-12-11T14:23:26.613Z,11.25
2022-12-11T14:26:01.544Z,11.50
2022-12-11T14:28:37.745Z,10.88
2022-12-11T14:31:06.894Z,11.65
2022-12-11T14:33:46.103Z,17.35
2022-12-11T14:36:15.608Z,36.38
2022-12-11T14:39:05.290Z,10.50
2022-12-11T14:42:04.959Z,10.48
2022-12-11T14:44:48.175Z,21.23
2022-12-11T14:47:22.714Z,14.77
2022-12-11T14:49:56.569Z,15.48
2022-12-11T14:52:30.521Z,10.30
2022-12-11T14:55:05.548Z,24.88
2022-12-11T14:57:34.447Z,12.07
2022-12-11T15:00:02.464Z,11.95
2022-12-11T15:02:34.852Z,10.18
2022-12-11T15:05:04.404Z,8.40
2022-12-11T15:07:32.281Z,12.55
2022-12-11T15:09:59.654Z,16.65
2022-12-11T15:12:28.722Z,12.27
2022-12-11T15:14:59.355Z,12.43
2022-12-11T15:17:28.437Z,14.10
2022-12-11T15:20:08.916Z,32.00
2022-12-11T15:22:37.288Z,11.15
2022-12-11T15:25:06.201Z,9.35
2022-12-11T15:27:36.999Z,9.10
2022-12-11T15:30:20.369Z,9.80
2022-12-11T15:32:48.149Z,9.15
2022-12-11T15:35:27.381Z,10.85
2022-12-11T15:37:56.703Z,13.55
2022-12-11T15:40:24.753Z,10.63
2022-12-11T15:42:53.595Z,14.37
2022-12-11T15:45:31.220Z,9.68
2022-12-11T15:47:59.747Z,15.07
2022-12-11T15:50:29.422Z,15.02
2022-12-11T15:52:57.766Z,10.93
2022-12-11T15:55:27.830Z,11.13
2022-12-11T15:57:59.440Z,12.68
2022-12-11T16:00:28.472Z,9.18
2022-12-11T16:02:57.353Z,9.85
2022-12-11T16:05:26.031Z,10.18
2022-12-11T16:07:54.966Z,9.47
2022-12-11T16:10:22.928Z,11.15
2022-12-11T16:12:50.507Z,12.57
2022-12-11T16:15:23.626Z,8.45
2022-12-11T16:18:01.229Z,9.15
2022-12-11T16:20:29.329Z,13.37
2022-12-11T16:22:56.865Z,12.43
2022-12-11T16:25:25.169Z,13.10
2022-12-11T16:27:55.312Z,12.63
2022-12-11T16:30:22.867Z,14.68
2022-12-11T16:32:50.330Z,15.73
2022-12-11T16:35:17.897Z,13.02
2022-12-11T16:37:45.630Z,11.98
2022-12-11T16:40:13.032Z,13.52
2022-12-11T16:42:40.401Z,14.15
2022-12-11T16:45:12.553Z,11.27
2022-12-11T16:47:40.060Z,12.80
2022-12-11T16:50:08.158Z,14.68
2022-12-11T16:54:26.040Z,10.20
2022-12-11T16:56:53.433Z,13.18
2022-12-11T16:59:20.865Z,13.07
2022-12-11T17:01:51.098Z,11.93
2022-12-11T17:04:18.604Z,9.75
2022-12-11T17:06:46.645Z,11.67
2022-12-11T17:09:13.934Z,10.85
2022-12-11T17:11:41.207Z,10.95
2022-12-11T17:14:12.708Z,12.43
2022-12-11T17:16:40.053Z,11.55
2022-12-11T17:19:07.724Z,18.23
2022-12-11T17:21:35.381Z,13.10
2022-12-11T17:24:02.772Z,16.88
2022-12-11T17:26:30.821Z,13.43
2022-12-11T17:28:58.549Z,13.70
2022-12-11T17:31:26.017Z,14.57
2022-12-11T17:33:54.341Z,15.18
2022-12-11T17:36:22.931Z,13.27
2022-12-11T17:38:50.585Z,13.65
2022-12-11T17:41:20.731Z,15.65
2022-12-11T17:43:50.198Z,10.57
2022-12-11T17:46:18.483Z,10.80
2022-12-11T17:48:46.742Z,13.77
2022-12-11T17:51:21.267Z,11.05
2022-12-11T17:53:48.733Z,9.85
2022-12-11T17:56:16.752Z,11.00
2022-12-11T17:58:44.241Z,13.25
2022-12-11T18:01:13.484Z,12.63
2022-12-11T18:03:41.883Z,18.80
2022-12-11T18:06:13.311Z,22.70
2022-12-11T18:08:41.598Z,24.80
2022-12-11T18:11:12.273Z,15.55
2022-12-11T18:13:39.955Z,19.05
2022-12-11T18:16:12.947Z,25.42
2022-12-11T18:18:47.862Z,24.20
2022-12-11T18:21:18.084Z,16.70
2022-12-11T18:23:45.723Z,13.73
2022-12-11T18:26:14.834Z,16.42
2022-12-11T18:28:43.216Z,26.60
2022-12-11T18:31:10.935Z,22.55
2022-12-11T18:33:39.994Z,23.27
2022-12-11T18:36:11.380Z,23.10
2022-12-11T18:38:39.956Z,19.73
2022-12-11T18:41:10.647Z,14.95
2022-12-11T18:43:46.032Z,19.60
2022-12-11T18:46:20.177Z,52.20
2022-12-11T18:48:54.816Z,28.55
2022-12-11T18:51:26.127Z,14.07
2022-12-11T18:53:53.838Z,10.38
2022-12-11T18:56:22.343Z,11.93
2022-12-11T18:58:50.713Z,12.90
2022-12-11T19:01:21.698Z,18.38
2022-12-11T19:03:51.575Z,17.77
2022-12-11T19:06:21.514Z,14.05
2022-12-11T19:08:48.899Z,15.43
2022-12-11T19:11:22.255Z,15.63
2022-12-11T19:13:50.402Z,13.70
2022-12-11T19:16:26.843Z,14.32
2022-12-11T19:18:54.571Z,11.20
2022-12-11T19:21:22.228Z,11.73
2022-12-11T19:23:50.180Z,12.63
2022-12-11T19:26:20.837Z,17.35
2022-12-11T19:28:49.941Z,24.25
2022-12-11T19:31:20.686Z,25.13
2022-12-11T19:33:48.107Z,14.40
2022-12-11T19:36:18.864Z,38.30
2022-12-11T19:38:46.625Z,19.33
2022-12-11T19:41:19.263Z,20.45
2022-12-11T19:43:47.229Z,29.95
2022-12-11T19:46:16.218Z,22.77
2022-12-11T19:48:44.050Z,27.13
2022-12-11T19:51:13.734Z,21.05
2022-12-11T19:53:42.893Z,27.38
2022-12-11T19:56:10.883Z,21.73
2022-12-11T19:58:39.006Z,28.05
2022-12-11T20:01:07.684Z,23.90
2022-12-11T20:03:41.100Z,25.63
2022-12-11T20:06:10.618Z,25.75
2022-12-11T20:08:46.263Z,25.70
2022-12-11T20:11:18.297Z,30.77
2022-12-11T20:13:47.359Z,19.47
2022-12-11T20:16:17.123Z,22.08
2022-12-11T20:18:46.177Z,19.92
2022-12-11T20:21:16.075Z,20.38
2022-12-11T20:23:44.340Z,23.52
2022-12-11T20:26:17.649Z,18.20
2022-12-11T20:28:48.355Z,21.30
2022-12-11T20:31:20.359Z,24.05
2022-12-11T20:33:49.465Z,21.65
2022-12-11T20:36:25.889Z,27.33
2022-12-11T20:38:55.816Z,26.63
2022-12-11T20:41:28.945Z,37.15
2022-12-11T20:44:13.928Z,48.05
2022-12-11T20:46:44.756Z,42.70
2022-12-11T20:49:27.346Z,52.88
2022-12-11T20:51:57.809Z,48.30
2022-12-11T20:54:59.969Z,48.92
2022-12-11T20:57:27.537Z,56.13
2022-12-11T20:59:55.249Z,49.22
2022-12-11T21:02:22.890Z,52.10
2022-12-11T21:04:50.828Z,54.53
2022-12-11T21:07:20.283Z,39.35
2022-12-11T21:09:48.403Z,47.33
2022-12-11T21:12:15.777Z,46.95
2022-12-11T21:14:43.158Z,53.38
2022-12-11T21:17:13.243Z,57.63
2022-12-11T21:19:41.078Z,60.80
2022-12-11T21:22:08.395Z,55.90
2022-12-11T21:24:35.781Z,47.72
2022-12-11T21:27:04.103Z,42.53
2022-12-11T21:29:31.619Z,39.57
2022-12-11T21:31:59.138Z,50.33
2022-12-11T21:34:27.527Z,75.97
2022-12-11T21:36:57.311Z,70.80
2022-12-11T21:39:26.701Z,42.10
2022-12-11T21:41:54.549Z,38.53
2022-12-11T21:47:09.928Z,38.47
2022-12-11T21:49:38.213Z,25.58
2022-12-11T21:52:06.474Z,62.38
2022-12-11T21:54:33.867Z,31.37
2022-12-11T21:57:01.505Z,31.65
2022-12-11T21:59:29.415Z,39.50
2022-12-11T22:01:57.241Z,33.63
2022-12-11T22:04:24.895Z,37.70
2022-12-11T22:06:52.911Z,42.90
2022-12-11T22:09:20.288Z,43.35
2022-12-11T22:11:48.175Z,35.05
2022-12-11T22:14:18.403Z,35.30
2022-12-11T22:16:46.287Z,81.00
2022-12-11T22:19:13.961Z,39.90
2022-12-11T22:21:41.438Z,33.42
2022-12-11T22:24:09.593Z,36.72
2022-12-11T22:26:37.305Z,42.92
2022-12-11T22:29:04.958Z,56.58
2022-12-11T22:31:32.774Z,35.90
2022-12-11T22:34:00.520Z,49.88
2022-12-11T22:36:28.075Z,52.65
2022-12-11T22:38:56.035Z,47.55
2022-12-11T22:41:27.471Z,43.58
2022-12-11T22:43:56.077Z,52.30
2022-12-11T22:46:26.663Z,45.78
2022-12-11T22:48:54.608Z,44.03
2022-12-11T22:51:22.460Z,59.20
2022-12-11T22:53:49.815Z,50.63
2022-12-11T22:56:17.542Z,48.20
2022-12-11T22:58:44.965Z,63.58
2022-12-11T23:01:16.243Z,57.55
2022-12-11T23:03:43.700Z,57.13
2022-12-11T23:06:13.864Z,70.97
2022-12-11T23:08:42.597Z,63.20
2022-12-11T23:11:20.112Z,47.10
2022-12-11T23:13:48.237Z,33.70
2022-12-11T23:16:15.760Z,46.17
2022-12-11T23:18:43.887Z,41.28
2022-12-11T23:21:13.039Z,44.30
2022-12-11T23:23:40.945Z,44.03
2022-12-11T23:26:10.215Z,41.75
2022-12-11T23:28:38.275Z,41.15
2022-12-11T23:31:06.476Z,40.47
2022-12-11T23:33:33.888Z,39.43
2022-12-11T23:36:01.423Z,37.92
2022-12-11T23:38:29.050Z,31.88
2022-12-11T23:40:56.619Z,28.77
2022-12-11T23:43:24.253Z,34.90
2022-12-11T23:45:51.930Z,32.83
2022-12-11T23:48:20.322Z,26.95
2022-12-11T23:50:48.468Z,35.83
2022-12-11T23:53:15.844Z,33.00
2022-12-11T23:55:45.062Z,33.95
2022-12-11T23:58:13.018Z,34.40
